TOPK1: Soldier Creek, Topeka, KS

Data processed at Fri Jun 05 2020 23:15


All information presented herein is the property of the government of the United States of America and may be revised or deleted at any time without prior notice.
Dissemination of this information without the expressed written consent of the Public Affairs Office, Tulsa District U.S. Army Corps of Engineers is strictly prohibited.
These data are gathered electronically and, as presented, have not undergone any form of quality control. These data are not guaranteed to be valid or correct.
Go to home page.
Go to station list.
Go to home page.


Previous Day
Next Day
Current Day


    
SHEF ID:       TOPK1     SOLDIER C NR TOPEKA, KS
STATION TYPE:  

               PRECIP     STAGE  RIV-FLOW  BAT-LOAD
                   in        ft       cfs      volt
              Ccp-Rev   Ccp-Rev   Ccp-Rev   Ccp-Rev
(US/Central)
06/05 00:00      0.00      1.08       130     12.89
06/05 01:00      0.00      1.09       132     12.83
06/05 02:00      0.00      1.09       132     12.83
06/05 03:00      0.13      1.13       139     12.77
06/05 04:00      0.19      1.14       141     12.77
06/05 05:00      0.00      1.15       143     12.71
06/05 06:00      0.00      1.15       143     12.71
06/05 07:00      0.00      1.16       145     12.65
06/05 08:00      0.01      1.17       147     12.65
06/05 09:00      0.00      1.18       149     12.65
06/05 10:00      0.00      1.20       153     12.83
06/05 11:00      0.00      1.22       156     13.30
06/05 12:00      0.00      1.22       156     13.48
06/05 13:00      0.00      1.21       155     13.48
06/05 14:00      0.00      1.20       153     13.53
06/05 15:00      0.00      1.19       151     13.53
06/05 16:00      0.00      1.17       147     13.48
06/05 17:00      0.00      1.16       145     13.48
06/05 18:00      0.00      1.14       141     13.42
06/05 19:00      0.00      1.12       138     13.59
06/05 20:00      0.00      1.11       136     13.00
06/05 21:00      0.00      1.10       134     12.89
06/05 22:00      0.00      1.09       132     12.89
06/05 23:00      ----      ----      ----      ----